SIZV weather

Public forecast

Using degrees Celsius for public forecast. Weather courtesy of forecast.io.

Closest aviation weather report (METAR) to Sada Heliport

Closest report is Carlos Prates Airport, 7.8 nm (14.4 km) ENE. Retrieved 2020/08/15 19:00 UTC (28 minutes ago):

SBPR 151900Z 36005KT CAVOK 28/13 Q1016

Closest aviation forecast (TAF) to Sada Heliport

Forecast is more than 12 hours old.

Closest forecast is Pampulha - Carlos Drummond de Andrade Airport, 11.5 nm (21.2 km) NE. Retrieved 2012/03/26 18:12 UTC (8 years ago):

TAF SBBH 261639Z 2618/2706 09005KT 9999 SCT030 TX28/2618Z TN20/2705Z PROB30 2619/2624 8000 TSRA BKN035 FEW045CB RMK PGG